Time;durP1;ratioP1;P1;durP2;ratioP2;P2;SDS_P1;SDS_P2;PMS_P1;PMS_P2;Temp;Humidity;BMP_temperature;BMP_pressure;BME280_temperature;BME280_humidity;BME280_pressure;Samples;Min_cycle;Max_cycle;Signal;HPM_P1;HPM_P2
2022/07/05 00:00:59;;;;;;;;;1.00;1.00;;;;;23.27;41.50;101684.19;2087379;28;47367;-48
2022/07/05 00:02:00;;;;;;;;;1.00;1.00;;;;;23.25;41.33;101686.13;2087939;28;47889;-49
2022/07/05 00:03:00;;;;;;;;;1.00;1.00;;;;;23.24;41.53;101681.63;2087789;28;47345;-47
2022/07/05 00:04:01;;;;;;;;;1.00;1.00;;;;;23.25;41.70;101679.81;2087743;28;47620;-48
2022/07/05 00:05:01;;;;;;;;;0.00;0.00;;;;;23.25;41.28;101679.81;2082815;28;47648;-48
2022/07/05 00:06:02;;;;;;;;;1.00;1.00;;;;;23.22;41.38;101680.88;2086404;28;47496;-51
2022/07/05 00:07:18;;;;;;;;;1.67;1.67;;;;;23.22;41.29;101678.16;2087497;28;47525;-48
2022/07/05 00:08:18;;;;;;;;;0.50;0.50;;;;;23.22;41.50;101682.69;2087420;28;47996;-48
2022/07/05 00:09:18;;;;;;;;;2.67;1.00;;;;;23.19;41.31;101681.94;2087394;28;47232;-51
2022/07/05 00:10:19;;;;;;;;;0.00;0.00;;;;;23.19;41.60;101681.94;2087253;28;47604;-48
2022/07/05 00:11:19;;;;;;;;;0.33;0.00;;;;;23.16;41.11;101676.69;2087329;28;47371;-48
2022/07/05 00:12:22;;;;;;;;;0.00;0.00;;;;;23.16;41.58;101681.25;2087637;28;47402;-47
2022/07/05 00:13:23;;;;;;;;;1.00;1.00;;;;;23.13;41.61;101674.19;2086640;28;47160;-49
2022/07/05 00:14:23;;;;;;;;;2.00;1.33;;;;;23.12;41.54;101675.16;2087354;28;46755;-47
2022/07/05 00:15:24;;;;;;;;;1.00;1.00;;;;;23.11;41.47;101686.91;2087643;28;47994;-46
2022/07/05 00:16:24;;;;;;;;;1.00;0.33;;;;;23.09;41.17;101679.84;2085301;28;47685;-48
2022/07/05 00:17:25;;;;;;;;;0.00;0.00;;;;;23.07;41.50;101673.66;2087790;28;47757;-51
2022/07/05 00:18:25;;;;;;;;;1.00;1.00;;;;;23.05;41.51;101675.59;2087187;28;47496;-52
2022/07/05 00:19:26;;;;;;;;;1.00;1.00;;;;;23.03;41.30;101667.56;2086949;28;47677;-50
2022/07/05 00:20:26;;;;;;;;;2.00;2.00;;;;;23.01;41.71;101680.31;2087799;28;47560;-48
2022/07/05 00:21:27;;;;;;;;;0.67;0.67;;;;;23.00;41.60;101681.28;2085640;28;46770;-47
2022/07/05 00:22:27;;;;;;;;;1.67;1.67;;;;;22.98;41.58;101683.16;2084415;28;47597;-52
2022/07/05 00:23:27;;;;;;;;;1.00;1.00;;;;;22.96;41.35;101679.69;2084516;28;47271;-49
2022/07/05 00:24:28;;;;;;;;;1.00;1.00;;;;;22.94;41.42;101681.63;2082831;28;47924;-49
2022/07/05 00:25:29;;;;;;;;;2.67;1.33;;;;;22.93;41.75;101679.88;2085959;28;47470;-50
2022/07/05 00:26:29;;;;;;;;;0.67;0.67;;;;;22.91;41.75;101679.09;2085964;28;47128;-48
2022/07/05 00:27:29;;;;;;;;;3.33;3.33;;;;;22.90;41.43;101685.47;2085933;28;47396;-49
2022/07/05 00:28:30;;;;;;;;;2.00;2.00;;;;;22.88;41.46;101677.44;2080930;28;47613;-52
2022/07/05 00:29:30;;;;;;;;;0.00;0.00;;;;;22.87;41.92;101683.81;2083599;28;47675;-51
2022/07/05 00:30:30;;;;;;;;;2.75;2.75;;;;;22.85;41.58;101680.31;2085322;28;47155;-50
2022/07/05 00:31:31;;;;;;;;;1.33;1.33;;;;;22.83;42.00;101681.34;2082653;28;47760;-49
2022/07/05 00:32:31;;;;;;;;;2.00;2.00;;;;;22.81;41.82;101686.84;2083288;28;47451;-48
2022/07/05 00:33:32;;;;;;;;;0.00;0.00;;;;;22.81;41.82;101685.97;2086560;28;46755;-51
2022/07/05 00:34:32;;;;;;;;;1.00;1.00;;;;;22.79;41.88;101677.06;2090103;28;47628;-48
2022/07/05 00:35:32;;;;;;;;;0.00;0.00;;;;;22.77;41.36;101679.84;2083661;28;46536;-48
2022/07/05 00:36:33;;;;;;;;;0.67;0.67;;;;;22.78;41.83;101684.31;2081962;28;48081;-49
2022/07/05 00:37:33;;;;;;;;;1.00;1.00;;;;;22.77;41.87;101685.28;2084613;28;47736;-48
2022/07/05 00:38:34;;;;;;;;;0.00;0.00;;;;;22.76;41.98;101683.53;2084636;28;47188;-47
2022/07/05 00:39:34;;;;;;;;;0.00;0.00;;;;;22.77;41.88;101685.28;2082173;28;47500;-49
2022/07/05 00:40:35;;;;;;;;;1.00;1.00;;;;;22.77;41.93;101684.41;2082901;28;47268;-49
2022/07/05 00:41:36;;;;;;;;;0.00;0.00;;;;;22.75;41.88;101684.50;2084617;28;47800;-49
2022/07/05 00:42:36;;;;;;;;;0.00;0.00;;;;;22.74;41.97;101684.56;2087517;28;47853;-47
2022/07/05 00:43:37;;;;;;;;;0.67;0.33;;;;;22.72;41.88;101681.94;2085448;28;47749;-46
2022/07/05 00:44:41;;;;;;;;;1.00;1.00;;;;;22.71;41.81;101685.59;2080109;28;47113;-47
2022/07/05 00:45:41;;;;;;;;;0.00;0.00;;;;;22.70;42.29;101686.56;2082837;28;47748;-48
2022/07/05 00:46:43;;;;;;;;;0.67;0.67;;;;;22.70;42.17;101683.88;2082797;28;47715;-47
2022/07/05 00:47:44;;;;;;;;;1.00;1.00;;;;;22.71;42.30;101684.72;2085192;28;47649;-50
2022/07/05 00:48:44;;;;;;;;;1.33;1.33;;;;;22.71;41.95;101688.31;2088923;28;47645;-53
2022/07/05 00:49:44;;;;;;;;;1.67;1.33;;;;;22.70;42.16;101683.00;2081264;28;48086;-50
2022/07/05 00:50:45;;;;;;;;;0.00;0.00;;;;;22.69;42.04;101678.53;2082338;28;47598;-47
2022/07/05 00:51:45;;;;;;;;;0.67;0.67;;;;;22.68;41.95;101688.50;2083898;28;47762;-49
2022/07/05 00:52:46;;;;;;;;;2.00;2.00;;;;;22.68;42.14;101679.50;2082926;28;48022;-48
2022/07/05 00:53:47;;;;;;;;;0.00;0.00;;;;;22.69;42.31;101689.38;2083367;28;47975;-46
2022/07/05 00:54:48;;;;;;;;;0.00;0.00;;;;;22.68;42.01;101682.22;2087629;28;47655;-47
2022/07/05 00:55:49;;;;;;;;;2.00;0.60;;;;;22.68;42.08;101682.22;2086945;28;47899;-49
2022/07/05 00:56:49;;;;;;;;;0.67;0.67;;;;;22.68;42.17;101691.19;2094171;28;47730;-50
2022/07/05 00:57:50;;;;;;;;;2.75;2.75;;;;;22.69;42.25;101683.97;2094318;28;48005;-45
2022/07/05 00:58:51;;;;;;;;;0.00;0.00;;;;;22.68;42.28;101682.22;2082931;28;47579;-50
2022/07/05 00:59:52;;;;;;;;;0.75;0.75;;;;;22.67;42.05;101683.16;2085966;28;46741;-49
2022/07/05 01:00:53;;;;;;;;;1.25;1.25;;;;;22.66;41.96;101679.59;2086860;28;47934;-50
2022/07/05 01:01:54;;;;;;;;;0.00;0.00;;;;;22.66;41.71;101684.13;2087117;28;47277;-49
2022/07/05 01:02:54;;;;;;;;;0.00;0.00;;;;;22.64;42.16;101688.78;2086918;28;48002;-52
2022/07/05 01:03:55;;;;;;;;;1.00;0.00;;;;;22.63;42.07;101681.63;2086725;28;46707;-48
2022/07/05 01:04:55;;;;;;;;;0.00;0.00;;;;;22.63;42.29;101687.03;2087101;28;47484;-48
2022/07/05 01:05:56;;;;;;;;;0.00;0.00;;;;;22.61;42.20;101687.09;2086054;28;48178;-51
2022/07/05 01:06:57;;;;;;;;;1.75;1.75;;;;;22.59;42.20;101680.88;2090354;28;47581;-48
2022/07/05 01:08:00;;;;;;;;;0.40;0.40;;;;;22.58;42.15;101684.56;2088999;28;47087;-48
2022/07/05 01:09:00;;;;;;;;;0.20;0.20;;;;;22.56;42.39;101681.94;2087154;28;47984;-49
2022/07/05 01:10:01;;;;;;;;;0.80;0.80;;;;;22.56;42.14;101681.06;2087382;28;47571;-51
2022/07/05 01:11:02;;;;;;;;;0.25;0.25;;;;;22.56;42.07;101683.78;2086853;28;47550;-49
2022/07/05 01:12:02;;;;;;;;;0.00;0.00;;;;;22.56;42.43;101681.06;2093607;28;47099;-49
2022/07/05 01:13:03;;;;;;;;;1.00;1.00;;;;;22.55;42.15;101682.03;2093835;28;47475;-48
2022/07/05 01:14:03;;;;;;;;;0.25;0.25;;;;;22.54;42.18;101675.75;2094469;28;47816;-50
2022/07/05 01:15:05;;;;;;;;;1.00;1.00;;;;;22.51;42.35;101680.47;2083623;28;46543;-48
2022/07/05 01:16:06;;;;;;;;;0.00;0.00;;;;;22.50;42.42;101684.13;2085515;28;47705;-48
2022/07/05 01:17:07;;;;;;;;;1.80;1.80;;;;;22.48;42.42;101676.06;2091742;28;47497;-48
2022/07/05 01:18:08;;;;;;;;;1.00;1.00;;;;;22.49;42.41;101676.97;2081727;28;48388;-47
2022/07/05 01:19:14;;;;;;;;;1.00;1.00;;;;;22.48;42.58;101676.06;2086237;28;47517;-49
2022/07/05 01:20:14;;;;;;;;;1.00;1.00;;;;;22.49;42.80;101671.56;2092901;28;47553;-48
2022/07/05 01:21:18;;;;;;;;;0.33;0.33;;;;;22.48;42.18;101684.19;2085612;28;47264;-46
2022/07/05 01:22:19;;;;;;;;;1.25;1.25;;;;;22.46;42.17;101677.13;2082598;28;47564;-48
2022/07/05 01:23:21;;;;;;;;;1.50;1.50;;;;;22.43;42.44;101677.31;2081758;28;47318;-47
2022/07/05 01:24:22;;;;;;;;;0.50;0.50;;;;;22.41;42.66;101673.81;2084727;28;45534;-50
2022/07/05 01:25:24;;;;;;;;;1.00;1.00;;;;;22.39;42.87;101675.75;2085340;28;47484;-49
2022/07/05 01:26:25;;;;;;;;;1.50;1.50;;;;;22.38;42.89;101671.31;2080595;28;47551;-48
2022/07/05 01:27:25;;;;;;;;;0.33;0.33;;;;;22.38;43.07;101668.59;2083780;28;47322;-49
2022/07/05 01:28:26;;;;;;;;;0.33;0.33;;;;;22.38;43.00;101676.72;2085494;28;47706;-50
2022/07/05 01:29:26;;;;;;;;;1.00;1.00;;;;;22.36;43.07;101667.78;2088324;28;47223;-46
2022/07/05 01:30:28;;;;;;;;;0.33;0.33;;;;;22.36;42.67;101681.31;2084320;28;47245;-48
2022/07/05 01:31:29;;;;;;;;;1.00;0.75;;;;;22.36;42.84;101675.91;2090315;28;46154;-48
2022/07/05 01:32:30;;;;;;;;;0.25;0.25;;;;;22.33;42.50;101675.09;2090242;28;47539;-51
2022/07/05 01:33:30;;;;;;;;;0.33;0.33;;;;;22.32;42.54;101665.25;2086974;28;47216;-51
2022/07/05 01:34:31;;;;;;;;;1.00;1.00;;;;;22.32;42.71;101669.78;2087863;28;47639;-48
2022/07/05 01:35:32;;;;;;;;;0.75;0.75;;;;;22.31;42.71;101668.91;2085505;28;47438;-48
2022/07/05 01:36:34;;;;;;;;;2.00;2.00;;;;;22.30;42.87;101666.31;2086129;28;47986;-51
2022/07/05 01:37:35;;;;;;;;;1.00;1.00;;;;;22.30;42.46;101671.72;2088179;28;48392;-49
2022/07/05 01:38:36;;;;;;;;;0.00;0.00;;;;;22.29;42.73;101673.53;2081815;28;47630;-50
2022/07/05 01:39:37;;;;;;;;;0.75;0.75;;;;;22.29;43.05;101673.53;2085764;28;47450;-51
2022/07/05 01:40:38;;;;;;;;;0.80;0.80;;;;;22.28;42.74;101671.81;2082853;28;47774;-49
2022/07/05 01:41:38;;;;;;;;;1.50;1.50;;;;;22.28;42.56;101669.09;2085456;28;47405;-49
2022/07/05 01:42:39;;;;;;;;;0.50;0.00;;;;;22.28;42.49;101674.50;2084013;28;46703;-47
2022/07/05 01:43:39;;;;;;;;;0.33;0.33;;;;;22.27;42.70;101670.06;2081274;28;47836;-47
2022/07/05 01:44:39;;;;;;;;;0.67;0.67;;;;;22.27;42.95;101671.88;2087052;28;47800;-46
2022/07/05 01:45:41;;;;;;;;;3.00;1.25;;;;;22.26;42.88;101671.03;2089668;28;47719;-47
2022/07/05 01:46:43;;;;;;;;;0.00;0.00;;;;;22.27;42.56;101669.19;2086699;28;48058;-49
2022/07/05 01:47:45;;;;;;;;;1.00;1.00;;;;;22.26;43.02;101670.16;2085255;28;47501;-51
2022/07/05 01:48:48;;;;;;;;;1.00;1.00;;;;;22.27;43.41;101677.31;2085659;28;47886;-48
2022/07/05 01:49:54;;;;;;;;;1.50;1.00;;;;;22.26;43.07;101672.84;2081373;28;48030;-47
2022/07/05 01:51:04;;;;;;;;;2.60;2.60;;;;;22.25;42.91;101673.81;2084965;28;47705;-47
2022/07/05 01:52:11;;;;;;;;;1.00;1.00;;;;;22.23;42.52;101673.00;2089481;28;47923;-50
2022/07/05 01:53:17;;;;;;;;;0.00;0.00;;;;;22.19;42.81;101675.00;2084964;28;47535;-48
2022/07/05 01:54:18;;;;;;;;;0.00;0.00;;;;;22.16;42.92;101672.47;2086324;28;47376;-48
2022/07/05 01:55:19;;;;;;;;;3.00;3.00;;;;;22.13;43.05;101675.34;2083258;28;47856;-47
2022/07/05 01:56:20;;;;;;;;;1.00;1.00;;;;;22.12;43.16;101676.31;2082986;28;47490;-50
2022/07/05 01:57:20;;;;;;;;;0.00;0.00;;;;;22.09;43.16;101676.47;2092793;28;47299;-48
2022/07/05 01:58:20;;;;;;;;;1.67;1.67;;;;;22.06;43.31;101676.63;2089897;28;47411;-48
2022/07/05 01:59:21;;;;;;;;;0.00;0.00;;;;;22.04;43.46;101673.97;2087626;28;47330;-50
2022/07/05 02:00:21;;;;;;;;;0.33;0.00;;;;;22.02;43.00;101680.44;2088324;28;47283;-49
2022/07/05 02:01:37;;;;;;;;;2.33;1.33;;;;;22.01;42.86;101676.88;2088588;28;47586;-48
2022/07/05 02:02:41;;;;;;;;;0.00;0.00;;;;;22.01;43.27;101673.28;2087449;28;47966;-45
2022/07/05 02:03:44;;;;;;;;;1.00;1.00;;;;;21.99;43.21;101673.38;2086360;28;47946;-49
2022/07/05 02:04:44;;;;;;;;;0.25;0.25;;;;;21.99;42.95;101667.97;2087683;28;47628;-48
2022/07/05 02:05:45;;;;;;;;;1.67;0.00;;;;;21.98;43.36;101673.47;2088217;28;47364;-51
2022/07/05 02:06:46;;;;;;;;;2.00;2.00;;;;;21.97;43.53;101668.97;2088162;28;47502;-49
2022/07/05 02:07:49;;;;;;;;;1.00;1.00;;;;;21.96;43.13;101670.81;2088321;28;47448;-47
2022/07/05 02:08:50;;;;;;;;;1.00;1.00;;;;;21.96;43.05;101669.94;2088175;28;47692;-52
2022/07/05 02:09:50;;;;;;;;;2.00;2.00;;;;;21.95;43.20;101670.91;2088197;28;47721;-49
2022/07/05 02:10:51;;;;;;;;;0.33;0.00;;;;;21.93;43.12;101671.00;2087928;28;47128;-48
2022/07/05 02:11:51;;;;;;;;;1.00;0.33;;;;;21.92;43.34;101671.06;2088386;28;47564;-47
2022/07/05 02:12:51;;;;;;;;;1.67;1.67;;;;;21.91;43.21;101672.91;2088090;28;47460;-49
2022/07/05 02:13:52;;;;;;;;;0.25;0.25;;;;;21.90;43.55;101673.00;2088300;28;47709;-49
2022/07/05 02:14:52;;;;;;;;;1.33;1.00;;;;;21.89;43.70;101671.25;2088203;28;47632;-49
2022/07/05 02:15:53;;;;;;;;;1.00;1.00;;;;;21.88;43.79;101667.66;2087844;28;47425;-48
2022/07/05 02:16:53;;;;;;;;;0.67;0.67;;;;;21.87;43.57;101670.47;2082625;28;47998;-54
2022/07/05 02:17:54;;;;;;;;;0.00;0.00;;;;;21.87;43.70;101675.88;2085337;28;47496;-49
2022/07/05 02:18:55;;;;;;;;;1.25;1.25;;;;;21.86;43.55;101663.31;2086896;28;47907;-48
2022/07/05 02:19:55;;;;;;;;;1.20;1.20;;;;;21.85;44.11;101667.84;2087966;28;47707;-51
2022/07/05 02:20:56;;;;;;;;;1.00;1.00;;;;;21.85;44.31;101667.84;2088043;28;47734;-49
2022/07/05 02:21:56;;;;;;;;;0.67;0.33;;;;;21.86;43.94;101672.28;2087819;28;48003;-49
2022/07/05 02:22:57;;;;;;;;;2.00;2.00;;;;;21.87;43.90;101665.06;2085045;28;47386;-49
2022/07/05 02:23:57;;;;;;;;;1.00;1.00;;;;;21.88;44.00;101672.19;2084365;28;47940;-50
2022/07/05 02:24:58;;;;;;;;;1.75;1.75;;;;;21.87;44.29;101667.75;2094901;28;47912;-50
2022/07/05 02:25:58;;;;;;;;;0.75;0.75;;;;;21.85;44.38;101665.13;2095537;28;47564;-48
2022/07/05 02:26:59;;;;;;;;;1.75;1.75;;;;;21.87;43.99;101665.06;2084167;28;47771;-48
2022/07/05 02:28:00;;;;;;;;;0.20;0.20;;;;;21.86;44.55;101669.59;2079510;28;47944;-47
2022/07/05 02:29:03;;;;;;;;;3.00;2.00;;;;;21.84;44.18;101665.19;2084811;28;47605;-48
2022/07/05 02:30:04;;;;;;;;;1.00;1.00;;;;;21.82;44.62;101669.81;2087228;28;47730;-50
2022/07/05 02:31:04;;;;;;;;;0.75;0.75;;;;;21.80;44.45;101666.31;2086868;28;47433;-49
2022/07/05 02:32:05;;;;;;;;;0.00;0.00;;;;;21.79;44.88;101665.44;2086648;28;47083;-50
2022/07/05 02:33:05;;;;;;;;;1.00;1.00;;;;;21.78;45.05;101668.25;2088837;28;47146;-48
2022/07/05 02:34:05;;;;;;;;;2.00;2.00;;;;;21.77;44.73;101663.78;2085485;28;47646;-50
2022/07/05 02:35:08;;;;;;;;;0.33;0.33;;;;;21.77;44.84;101669.19;2085219;28;46991;-49
2022/07/05 02:36:10;;;;;;;;;2.40;2.40;;;;;21.74;44.90;101667.53;2081401;28;47786;-50
2022/07/05 02:37:10;;;;;;;;;2.60;2.60;;;;;21.73;44.73;101665.78;2083152;28;47472;-50
2022/07/05 02:38:11;;;;;;;;;2.33;2.33;;;;;21.71;45.08;101673.94;2082879;28;47592;-49
2022/07/05 02:39:11;;;;;;;;;1.33;1.33;;;;;21.69;44.96;101666.88;2080978;28;48056;-46
2022/07/05 02:40:13;;;;;;;;;2.00;2.00;;;;;21.67;44.79;101674.22;2084004;28;47217;-47
2022/07/05 02:41:14;;;;;;;;;1.50;1.00;;;;;21.64;44.87;101669.84;2087079;28;47814;-47
2022/07/05 02:42:14;;;;;;;;;3.75;3.00;;;;;21.63;44.70;101672.63;2082360;28;48015;-48
2022/07/05 02:43:15;;;;;;;;;1.00;1.00;;;;;21.60;44.93;101668.28;2084826;28;47704;-49
2022/07/05 02:44:15;;;;;;;;;0.00;0.00;;;;;21.59;44.82;101668.31;2081223;28;47963;-48
2022/07/05 02:45:16;;;;;;;;;3.00;1.33;;;;;21.56;45.26;101673.91;2082653;28;47655;-47
2022/07/05 02:46:16;;;;;;;;;2.67;2.67;;;;;21.54;45.41;101665.00;2087029;28;47439;-47
2022/07/05 02:47:16;;;;;;;;;1.00;1.00;;;;;21.51;44.97;101667.88;2080517;28;47249;-48
2022/07/05 02:48:17;;;;;;;;;0.33;0.33;;;;;21.48;45.86;101665.34;2085759;28;47797;-49
2022/07/05 02:49:17;;;;;;;;;0.00;0.00;;;;;21.44;45.10;101661.91;2084131;28;47553;-48
2022/07/05 02:50:18;;;;;;;;;1.00;1.00;;;;;21.42;45.96;101663.81;2082562;28;47945;-49
2022/07/05 02:51:18;;;;;;;;;1.33;1.33;;;;;21.39;45.57;101662.16;2084980;28;47651;-49
2022/07/05 02:52:18;;;;;;;;;2.00;2.00;;;;;21.37;45.64;101655.09;2083069;28;47754;-47
2022/07/05 02:53:19;;;;;;;;;1.67;1.00;;;;;21.35;45.59;101660.56;2086185;28;47391;-47
2022/07/05 02:54:19;;;;;;;;;1.67;1.67;;;;;21.35;46.10;101663.28;2084618;28;45756;-46
2022/07/05 02:55:19;;;;;;;;;1.67;1.67;;;;;21.33;46.26;101664.28;2086377;28;47571;-48
2022/07/05 02:56:20;;;;;;;;;0.33;0.33;;;;;21.31;46.07;101660.78;2086173;28;48059;-46
2022/07/05 02:57:20;;;;;;;;;1.67;1.67;;;;;21.29;46.21;101665.41;2080649;28;47464;-45
2022/07/05 02:58:21;;;;;;;;;2.00;2.00;;;;;21.28;46.61;101660.97;2081369;28;48123;-46
2022/07/05 02:59:21;;;;;;;;;3.00;2.67;;;;;21.26;46.44;101657.47;2087770;28;47501;-45
2022/07/05 03:00:22;;;;;;;;;2.00;1.50;;;;;21.26;46.46;101662.88;2088044;28;47329;-46
2022/07/05 03:01:22;;;;;;;;;1.67;1.67;;;;;21.25;46.14;101662.00;2087894;28;47628;-48
2022/07/05 03:02:23;;;;;;;;;3.50;3.25;;;;;21.25;46.17;101661.09;2087870;28;47127;-45
2022/07/05 03:03:24;;;;;;;;;2.00;2.00;;;;;21.22;46.53;101664.81;2087244;28;47687;-47
2022/07/05 03:04:24;;;;;;;;;1.00;1.00;;;;;21.19;46.63;101656.84;2087027;28;46729;-47
2022/07/05 03:05:25;;;;;;;;;3.50;3.50;;;;;21.19;46.64;101667.66;2087360;28;47784;-48
2022/07/05 03:06:25;;;;;;;;;3.00;2.75;;;;;21.19;46.29;101661.38;2087980;28;46339;-49
2022/07/05 03:07:26;;;;;;;;;1.00;1.00;;;;;21.17;46.50;101661.47;2087547;28;47727;-51
2022/07/05 03:08:26;;;;;;;;;3.00;1.00;;;;;21.18;46.81;101665.91;2087590;28;47688;-47
2022/07/05 03:09:26;;;;;;;;;1.00;1.00;;;;;21.18;46.86;101665.91;2087577;28;47442;-47
2022/07/05 03:10:27;;;;;;;;;1.67;1.67;;;;;21.17;46.48;101661.47;2079078;28;47352;-54
2022/07/05 03:11:27;;;;;;;;;5.00;4.75;;;;;21.19;46.58;101659.56;2078303;28;48071;-48
2022/07/05 03:12:28;;;;;;;;;3.25;3.25;;;;;21.19;46.67;101662.25;2087354;28;47552;-49
2022/07/05 03:13:28;;;;;;;;;19.00;18.75;;;;;21.20;47.03;101663.13;2086160;28;47775;-48
2022/07/05 03:14:28;;;;;;;;;12.00;10.75;;;;;21.21;46.43;101672.97;2086542;28;47112;-46
2022/07/05 03:15:29;;;;;;;;;5.75;5.75;;;;;21.20;46.50;101668.53;2082585;28;47453;-48
2022/07/05 03:16:29;;;;;;;;;3.00;3.00;;;;;21.19;46.40;101669.47;2088763;28;47613;-47
2022/07/05 03:17:30;;;;;;;;;0.67;0.67;;;;;21.16;46.54;101668.69;2088004;28;47731;-47
2022/07/05 03:18:30;;;;;;;;;2.25;2.25;;;;;21.15;46.62;101671.47;2088042;28;47311;-45
2022/07/05 03:19:30;;;;;;;;;1.75;1.75;;;;;21.13;47.33;101670.69;2087630;28;47636;-50
2022/07/05 03:20:31;;;;;;;;;3.00;3.00;;;;;21.13;46.69;101674.25;2087753;28;47415;-48
2022/07/05 03:21:31;;;;;;;;;1.50;1.50;;;;;21.12;47.13;101671.63;2087062;28;47800;-47
2022/07/05 03:22:31;;;;;;;;;2.75;1.00;;;;;21.11;46.76;101667.19;2084917;28;48112;-50
2022/07/05 03:23:32;;;;;;;;;1.50;1.50;;;;;21.11;46.82;101661.78;2089859;28;48325;-52
2022/07/05 03:24:32;;;;;;;;;2.00;2.00;;;;;21.12;46.77;101668.94;2086856;28;47318;-48
2022/07/05 03:25:33;;;;;;;;;3.00;3.00;;;;;21.11;46.84;101669.88;2087849;28;47816;-47
2022/07/05 03:26:33;;;;;;;;;2.00;2.00;;;;;21.10;47.14;101668.16;2087884;28;47639;-50
2022/07/05 03:27:34;;;;;;;;;1.50;1.50;;;;;21.10;46.83;101668.16;2087511;28;47619;-50
2022/07/05 03:28:35;;;;;;;;;2.00;2.00;;;;;21.11;47.05;101672.59;2085210;28;47381;-48
2022/07/05 03:29:35;;;;;;;;;1.50;0.75;;;;;21.10;47.30;101663.63;2086598;28;48132;-49
2022/07/05 03:30:36;;;;;;;;;2.00;2.00;;;;;21.11;46.93;101669.88;2084039;28;47503;-47
2022/07/05 03:31:36;;;;;;;;;2.25;2.25;;;;;21.10;47.37;101663.63;2085317;28;47238;-46
2022/07/05 03:32:37;;;;;;;;;2.33;2.00;;;;;21.12;47.40;101666.25;2085743;28;47901;-48
2022/07/05 03:33:37;;;;;;;;;1.67;1.67;;;;;21.12;47.01;101671.63;2084689;28;47420;-50
2022/07/05 03:34:38;;;;;;;;;3.33;3.33;;;;;21.11;47.44;101668.06;2082804;28;47999;-48
2022/07/05 03:35:38;;;;;;;;;2.00;2.00;;;;;21.12;47.59;101672.50;2088980;28;47847;-50
2022/07/05 03:36:39;;;;;;;;;2.00;2.00;;;;;21.13;47.64;101674.25;2094413;28;47904;-48
2022/07/05 03:37:39;;;;;;;;;2.00;2.00;;;;;21.12;47.32;101677.91;2094109;28;47778;-50
2022/07/05 03:38:39;;;;;;;;;3.00;3.00;;;;;21.11;47.28;101676.16;2085596;28;47789;-50
2022/07/05 03:39:40;;;;;;;;;2.67;2.67;;;;;21.11;47.09;101676.16;2084583;28;47517;-48
2022/07/05 03:40:40;;;;;;;;;2.00;2.00;;;;;21.10;47.69;101674.41;2085952;28;47186;-49
2022/07/05 03:41:41;;;;;;;;;3.00;3.00;;;;;21.10;47.58;101679.81;2083092;28;47833;-46
2022/07/05 03:42:41;;;;;;;;;2.75;2.00;;;;;21.09;47.68;101679.91;2079858;28;47296;-49
2022/07/05 03:43:41;;;;;;;;;2.00;2.00;;;;;21.07;47.59;101679.06;2083670;28;47727;-49
2022/07/05 03:44:42;;;;;;;;;4.00;1.50;;;;;21.06;47.79;101685.41;2083213;28;47685;-47
2022/07/05 03:45:42;;;;;;;;;4.00;3.00;;;;;21.05;47.31;101683.66;2086565;28;47729;-47
2022/07/05 03:46:43;;;;;;;;;2.33;2.00;;;;;21.04;47.25;101673.84;2086140;28;47408;-48
2022/07/05 03:47:43;;;;;;;;;1.00;1.00;;;;;21.02;47.89;101684.72;2086023;28;47932;-47
2022/07/05 03:48:43;;;;;;;;;2.00;2.00;;;;;21.02;47.22;101689.22;2086769;28;47496;-52
2022/07/05 03:49:44;;;;;;;;;1.67;1.67;;;;;21.02;48.00;101692.81;2089615;28;47354;-47
2022/07/05 03:50:44;;;;;;;;;4.00;4.00;;;;;21.00;47.37;101681.22;2085117;28;47742;-50
2022/07/05 03:51:44;;;;;;;;;4.33;3.00;;;;;21.01;47.41;101696.47;2083048;28;46613;-52
2022/07/05 03:52:45;;;;;;;;;2.00;2.00;;;;;21.00;48.00;101692.00;2084524;28;47172;-49
2022/07/05 03:53:45;;;;;;;;;4.33;3.33;;;;;20.99;47.68;101692.09;2085353;28;47824;-49
2022/07/05 03:54:45;;;;;;;;;2.00;2.00;;;;;20.98;47.58;101695.75;2084866;28;47399;-48
2022/07/05 03:55:46;;;;;;;;;4.00;3.33;;;;;20.96;47.44;101700.31;2076312;28;48185;-48
2022/07/05 03:56:46;;;;;;;;;4.25;4.25;;;;;20.95;47.91;101696.75;2071163;28;48718;-50
2022/07/05 03:57:47;;;;;;;;;3.00;3.00;;;;;20.95;47.56;101693.16;2082241;28;48117;-47
2022/07/05 03:58:50;;;;;;;;;3.33;3.00;;;;;20.93;48.02;101695.94;2083047;28;47588;-50
2022/07/05 03:59:51;;;;;;;;;3.80;2.80;;;;;20.93;48.24;101698.66;2088432;28;47637;-48
2022/07/05 04:00:51;;;;;;;;;3.67;3.67;;;;;20.94;48.27;101699.53;2085065;28;48047;-51
2022/07/05 04:01:51;;;;;;;;;3.67;3.67;;;;;20.92;48.20;101707.69;2087075;28;47345;-52
2022/07/05 04:02:52;;;;;;;;;1.67;1.33;;;;;20.91;47.93;101703.25;2087495;28;47570;-50
2022/07/05 04:03:52;;;;;;;;;4.75;4.00;;;;;20.90;48.14;101698.81;2087182;28;48300;-48
2022/07/05 04:04:53;;;;;;;;;3.00;3.00;;;;;20.91;48.14;101697.84;2087569;28;48226;-50
2022/07/05 04:05:53;;;;;;;;;2.33;2.33;;;;;20.91;47.99;101700.56;2087014;28;47637;-48
2022/07/05 04:06:53;;;;;;;;;5.00;3.67;;;;;20.90;47.95;101704.19;2087208;28;47438;-49
2022/07/05 04:07:55;;;;;;;;;3.00;3.00;;;;;20.90;48.60;101706.03;2087360;28;46895;-48
2022/07/05 04:08:55;;;;;;;;;3.50;3.50;;;;;20.88;48.35;101706.09;2087669;28;46869;-49
2022/07/05 04:09:56;;;;;;;;;4.00;2.67;;;;;20.88;47.98;101699.84;2087487;28;47931;-50
2022/07/05 04:10:56;;;;;;;;;3.00;3.00;;;;;20.88;48.05;101710.63;2087461;28;47831;-49
2022/07/05 04:11:57;;;;;;;;;6.00;3.00;;;;;20.86;48.41;101708.00;2087497;28;47625;-48
2022/07/05 04:12:57;;;;;;;;;4.00;4.00;;;;;20.86;48.17;101706.19;2087681;28;47373;-47
2022/07/05 04:13:57;;;;;;;;;1.00;1.00;;;;;20.85;48.55;101700.88;2087226;28;47413;-47
2022/07/05 04:14:58;;;;;;;;;3.67;3.00;;;;;20.85;48.12;101707.13;2087344;28;47386;-46
2022/07/05 04:15:58;;;;;;;;;3.67;3.67;;;;;20.85;48.11;101699.03;2083722;28;47770;-49
2022/07/05 04:16:58;;;;;;;;;5.00;5.00;;;;;20.85;48.29;101706.25;2087352;28;47734;-49
2022/07/05 04:17:59;;;;;;;;;4.00;4.00;;;;;20.84;48.11;101704.53;2077563;28;47797;-50
2022/07/05 04:18:59;;;;;;;;;6.67;4.00;;;;;20.82;48.83;101707.25;2078094;28;48001;-49
2022/07/05 04:20:00;;;;;;;;;4.33;4.33;;;;;20.82;48.20;101709.09;2086812;28;47315;-48
2022/07/05 04:21:01;;;;;;;;;3.00;3.00;;;;;20.82;48.79;101709.97;2087483;28;47662;-48
2022/07/05 04:22:02;;;;;;;;;3.80;3.80;;;;;20.82;48.48;101709.09;2086137;28;45690;-51
2022/07/05 04:23:02;;;;;;;;;8.00;5.25;;;;;20.82;48.37;101711.78;2075687;28;47073;-48
2022/07/05 04:24:03;;;;;;;;;4.67;4.67;;;;;20.80;48.45;101713.69;2086208;28;47452;-50
2022/07/05 04:25:16;;;;;;;;;5.00;4.00;;;;;20.78;48.34;101705.66;2087293;28;47345;-49
2022/07/05 04:26:16;;;;;;;;;5.00;5.00;;;;;20.79;48.42;101717.34;2088102;28;47245;-52
2022/07/05 04:27:17;;;;;;;;;3.00;3.00;;;;;20.78;48.79;101715.59;2087166;28;47620;-49
2022/07/05 04:28:17;;;;;;;;;5.25;5.25;;;;;20.78;48.78;101715.59;2094126;28;47597;-48
2022/07/05 04:29:17;;;;;;;;;3.50;3.50;;;;;20.79;48.92;101720.03;2094648;28;47368;-48
2022/07/05 04:30:23;;;;;;;;;4.33;2.67;;;;;20.78;48.62;101719.16;2085800;28;47681;-51
2022/07/05 04:31:24;;;;;;;;;4.25;4.25;;;;;20.79;49.03;101722.72;2083106;28;47628;-48
2022/07/05 04:32:24;;;;;;;;;4.00;4.00;;;;;20.79;48.96;101720.03;2084387;28;47957;-51
2022/07/05 04:33:25;;;;;;;;;4.50;4.50;;;;;20.81;49.13;101712.75;2085368;28;47414;-52
2022/07/05 04:34:25;;;;;;;;;5.00;5.00;;;;;20.81;48.56;101716.31;2080433;28;47252;-49
2022/07/05 04:35:26;;;;;;;;;6.00;5.50;;;;;20.82;48.58;101717.19;2088863;28;47639;-50
2022/07/05 04:36:26;;;;;;;;;4.50;3.25;;;;;20.83;48.75;101710.84;2085989;28;47278;-48
2022/07/05 04:37:27;;;;;;;;;5.00;5.00;;;;;20.83;48.96;101714.44;2085644;28;47061;-51
2022/07/05 04:38:27;;;;;;;;;4.00;4.00;;;;;20.84;48.74;101707.22;2080837;28;47401;-51
2022/07/05 04:39:28;;;;;;;;;4.25;4.25;;;;;20.85;49.01;101706.25;2074612;28;47401;-48
2022/07/05 04:40:28;;;;;;;;;3.33;3.33;;;;;20.86;48.51;101716.09;2077602;28;47669;-51
2022/07/05 04:41:29;;;;;;;;;4.00;4.00;;;;;20.88;48.86;101713.31;2083056;28;48046;-50
2022/07/05 04:42:29;;;;;;;;;5.75;5.75;;;;;20.89;49.15;101717.78;2084474;28;47634;-51
2022/07/05 04:43:29;;;;;;;;;6.25;6.25;;;;;20.87;48.70;101709.75;2086873;28;47279;-49